createdAt,value
2023-04-09T00:00:13.799Z,24.67
2023-04-09T00:03:25.561Z,24.92
2023-04-09T00:06:43.445Z,24.53
2023-04-09T00:09:46.287Z,24.75
2023-04-09T00:12:49.757Z,27.27
2023-04-09T00:15:59.394Z,24.87
2023-04-09T00:19:12.086Z,22.15
2023-04-09T00:22:16.615Z,25.48
2023-04-09T00:25:28.529Z,23.50
2023-04-09T00:28:37.050Z,24.05
2023-04-09T00:31:50.257Z,25.13
2023-04-09T00:34:55.405Z,22.40
2023-04-09T00:38:01.365Z,24.10
2023-04-09T00:41:06.712Z,24.55
2023-04-09T00:44:11.426Z,25.00
2023-04-09T00:47:16.073Z,27.10
2023-04-09T00:50:30.302Z,27.13
2023-04-09T00:53:35.780Z,28.15
2023-04-09T00:56:41.740Z,25.23
2023-04-09T00:59:47.105Z,26.52
2023-04-09T01:02:54.060Z,24.00
2023-04-09T01:06:47.147Z,25.60
2023-04-09T01:10:38.195Z,25.27
2023-04-09T01:14:08.447Z,25.55
2023-04-09T01:17:47.187Z,31.25
2023-04-09T01:21:27.567Z,24.00
2023-04-09T01:28:39.396Z,26.40
2023-04-09T01:31:47.759Z,26.83
2023-04-09T01:34:53.051Z,26.35
2023-04-09T01:38:05.723Z,28.60
2023-04-09T01:41:19.740Z,27.58
2023-04-09T01:44:26.950Z,28.00
2023-04-09T01:47:38.874Z,28.42
2023-04-09T01:50:45.072Z,28.75
2023-04-09T01:53:50.742Z,30.33
2023-04-09T01:56:53.170Z,31.02
2023-04-09T01:59:57.735Z,30.30
2023-04-09T02:03:19.161Z,28.98
2023-04-09T02:10:21.354Z,25.60
2023-04-09T02:13:50.254Z,34.15
2023-04-09T02:16:54.842Z,29.10
2023-04-09T02:19:57.499Z,29.70
2023-04-09T02:23:01.590Z,30.30
2023-04-09T02:26:07.003Z,31.47
2023-04-09T02:29:11.276Z,30.85
2023-04-09T02:32:14.918Z,30.70
2023-04-09T02:35:18.255Z,33.90
2023-04-09T02:38:25.895Z,30.05
2023-04-09T02:41:30.425Z,28.88
2023-04-09T02:44:42.287Z,32.17
2023-04-09T02:47:47.882Z,30.03
2023-04-09T02:50:52.216Z,27.85
2023-04-09T02:53:58.077Z,26.45
2023-04-09T02:57:01.279Z,29.83
2023-04-09T03:00:06.282Z,27.38
2023-04-09T03:03:19.485Z,28.52
2023-04-09T03:06:25.638Z,31.38
2023-04-09T03:09:30.308Z,34.22
2023-04-09T03:12:34.419Z,28.50
2023-04-09T03:15:46.029Z,31.48
2023-04-09T03:18:58.189Z,29.97
2023-04-09T03:22:03.450Z,30.80
2023-04-09T03:25:10.351Z,30.73
2023-04-09T03:28:16.185Z,26.27
2023-04-09T03:31:30.032Z,30.15
2023-04-09T03:34:34.066Z,31.42
2023-04-09T03:37:39.084Z,32.65
2023-04-09T03:44:28.642Z,29.30
2023-04-09T03:47:39.816Z,28.85
2023-04-09T03:50:47.346Z,26.17
2023-04-09T03:54:00.779Z,29.88
2023-04-09T03:57:05.333Z,28.75
2023-04-09T04:00:18.431Z,28.20
2023-04-09T04:03:51.251Z,32.33
2023-04-09T04:07:01.536Z,27.08
2023-04-09T04:10:16.994Z,28.83
2023-04-09T04:13:32.142Z,28.23
2023-04-09T04:16:39.849Z,30.10
2023-04-09T04:19:52.366Z,29.08
2023-04-09T04:23:06.481Z,31.27
2023-04-09T04:26:14.042Z,28.27
2023-04-09T04:29:17.248Z,30.50
2023-04-09T04:32:37.480Z,29.67
2023-04-09T04:35:48.700Z,31.48
2023-04-09T04:39:34.301Z,29.63
2023-04-09T04:42:57.667Z,32.42
2023-04-09T04:46:03.648Z,28.88
2023-04-09T04:49:10.724Z,28.92
2023-04-09T04:52:23.664Z,32.22
2023-04-09T04:55:31.007Z,32.20
2023-04-09T04:58:45.502Z,28.05
2023-04-09T05:01:54.547Z,30.98
2023-04-09T05:04:57.193Z,32.47
2023-04-09T05:08:10.135Z,27.98
2023-04-09T05:11:16.928Z,29.52
2023-04-09T05:14:26.425Z,31.92
2023-04-09T05:17:30.228Z,31.88
2023-04-09T05:20:35.017Z,32.17
2023-04-09T05:23:45.331Z,32.50
2023-04-09T05:30:13.289Z,33.10
2023-04-09T05:33:30.339Z,37.13
2023-04-09T05:36:35.716Z,33.67
2023-04-09T05:39:43.230Z,33.70
2023-04-09T05:42:50.115Z,30.73
2023-04-09T05:46:04.125Z,36.65
2023-04-09T05:49:09.931Z,36.22
2023-04-09T05:52:25.129Z,40.47
2023-04-09T05:55:39.809Z,39.70
2023-04-09T05:58:47.048Z,44.23
2023-04-09T06:01:53.095Z,40.40
2023-04-09T06:05:01.024Z,38.60
2023-04-09T06:08:06.315Z,41.07
2023-04-09T06:11:20.510Z,40.88
2023-04-09T06:14:25.323Z,42.78
2023-04-09T06:17:34.566Z,40.58
2023-04-09T06:20:51.354Z,39.28
2023-04-09T06:23:57.127Z,41.15
2023-04-09T06:27:04.016Z,39.78
2023-04-09T06:30:08.249Z,39.47
2023-04-09T06:33:15.088Z,40.10
2023-04-09T06:36:20.433Z,39.63
2023-04-09T06:39:31.564Z,38.20
2023-04-09T06:42:34.965Z,38.25
2023-04-09T06:45:51.533Z,35.85
2023-04-09T06:48:54.823Z,37.75
2023-04-09T06:51:56.989Z,39.22
2023-04-09T06:55:02.647Z,35.75
2023-04-09T06:58:08.315Z,34.75
2023-04-09T07:01:20.464Z,33.03
2023-04-09T07:04:24.155Z,38.53
2023-04-09T07:07:36.255Z,39.25
2023-04-09T07:10:53.280Z,34.93
2023-04-09T07:14:04.645Z,37.25
2023-04-09T07:17:10.270Z,36.60
2023-04-09T07:20:14.209Z,34.38
2023-04-09T07:23:20.555Z,33.20
2023-04-09T07:26:23.609Z,32.75
2023-04-09T07:29:35.564Z,31.70
2023-04-09T07:32:40.336Z,31.00
2023-04-09T07:35:45.747Z,32.65
2023-04-09T07:38:50.109Z,33.65
2023-04-09T07:41:56.473Z,32.80
2023-04-09T07:44:58.697Z,34.33
2023-04-09T07:48:04.256Z,33.45
2023-04-09T07:51:12.155Z,31.15
2023-04-09T07:54:18.614Z,30.52
2023-04-09T07:57:31.055Z,33.08
2023-04-09T08:00:44.058Z,24.58
2023-04-09T08:07:11.234Z,24.23
2023-04-09T08:10:25.488Z,23.52
2023-04-09T08:13:30.855Z,25.60
2023-04-09T08:16:42.348Z,23.23
2023-04-09T08:19:48.392Z,23.65
2023-04-09T08:22:54.527Z,22.77
2023-04-09T08:26:09.112Z,19.67
2023-04-09T08:29:14.406Z,18.45
2023-04-09T08:32:19.472Z,18.90
2023-04-09T08:35:21.538Z,18.13
2023-04-09T08:38:23.618Z,20.13
2023-04-09T08:41:48.541Z,18.00
2023-04-09T08:44:52.174Z,19.03
2023-04-09T08:47:54.108Z,19.15
2023-04-09T08:50:57.146Z,22.60
2023-04-09T08:54:08.710Z,18.20
2023-04-09T08:57:13.457Z,16.88
2023-04-09T09:00:18.073Z,17.63
2023-04-09T09:03:23.400Z,15.10
2023-04-09T09:06:35.638Z,14.73
2023-04-09T09:10:01.068Z,15.65
2023-04-09T09:13:28.919Z,16.67
2023-04-09T09:16:38.512Z,19.20
2023-04-09T09:19:40.770Z,17.35
2023-04-09T09:22:54.955Z,15.38
2023-04-09T09:25:57.444Z,16.90
2023-04-09T09:29:07.925Z,16.67
2023-04-09T09:32:16.247Z,18.27
2023-04-09T09:35:19.909Z,17.58
2023-04-09T09:38:25.893Z,16.50
2023-04-09T09:41:31.549Z,17.35
2023-04-09T09:44:34.701Z,17.20
2023-04-09T09:47:45.733Z,17.37
2023-04-09T09:54:11.771Z,17.13
2023-04-09T09:57:27.927Z,16.63
2023-04-09T10:00:36.438Z,17.25
2023-04-09T10:03:42.922Z,19.10
2023-04-09T10:06:49.272Z,17.67
2023-04-09T10:09:59.185Z,18.60
2023-04-09T10:13:00.841Z,18.05
2023-04-09T10:16:12.089Z,17.67
2023-04-09T10:19:16.146Z,18.43
2023-04-09T10:22:38.610Z,16.27
2023-04-09T10:25:44.952Z,17.27
2023-04-09T10:28:50.730Z,17.02
2023-04-09T10:32:15.761Z,16.42
2023-04-09T10:35:27.658Z,16.02
2023-04-09T10:38:51.202Z,17.08
2023-04-09T10:42:10.203Z,16.63
2023-04-09T10:45:22.921Z,16.60
2023-04-09T10:48:31.142Z,16.65
2023-04-09T10:51:42.324Z,14.73
2023-04-09T10:58:07.199Z,17.33
2023-04-09T11:01:23.909Z,16.45
2023-04-09T11:05:02.208Z,18.35
2023-04-09T11:08:18.034Z,17.10
2023-04-09T11:11:34.960Z,16.90
2023-04-09T11:14:40.546Z,17.23
2023-04-09T11:17:45.548Z,15.65
2023-04-09T11:20:50.801Z,16.05
2023-04-09T11:23:55.351Z,15.90
2023-04-09T11:27:00.480Z,15.57
2023-04-09T11:30:04.449Z,15.95
2023-04-09T11:33:19.162Z,14.38
2023-04-09T11:36:22.862Z,16.77
2023-04-09T11:39:34.733Z,16.20
2023-04-09T11:42:44.190Z,17.67
2023-04-09T11:45:51.578Z,15.47
2023-04-09T11:52:23.952Z,16.63
2023-04-09T11:55:36.264Z,17.10
2023-04-09T11:58:51.255Z,16.38
2023-04-09T12:02:15.650Z,15.13
2023-04-09T12:05:37.967Z,15.27
2023-04-09T12:09:03.824Z,16.05
2023-04-09T12:12:12.010Z,15.43
2023-04-09T12:15:39.347Z,14.70
2023-04-09T12:18:43.080Z,12.87
2023-04-09T12:21:59.793Z,16.80
2023-04-09T12:25:04.884Z,14.50
2023-04-09T12:28:19.417Z,16.05
2023-04-09T12:31:33.082Z,14.32
2023-04-09T12:34:46.498Z,14.27
2023-04-09T12:37:50.109Z,14.52
2023-04-09T12:40:54.927Z,14.40
2023-04-09T12:43:57.214Z,14.20
2023-04-09T12:47:01.709Z,15.60
2023-04-09T12:50:05.446Z,13.65
2023-04-09T12:53:18.304Z,14.20
2023-04-09T12:56:31.660Z,14.32
2023-04-09T12:59:34.557Z,15.23
2023-04-09T13:02:38.660Z,14.13
2023-04-09T13:05:44.845Z,14.15
2023-04-09T13:12:14.893Z,15.80
2023-04-09T13:15:21.362Z,13.93
2023-04-09T13:18:32.678Z,14.90
2023-04-09T13:21:47.732Z,14.55
2023-04-09T13:24:53.289Z,14.90
2023-04-09T13:31:23.712Z,13.60
2023-04-09T13:34:38.432Z,13.40
2023-04-09T13:37:48.134Z,12.65
2023-04-09T13:40:55.436Z,13.30
2023-04-09T13:44:04.398Z,15.88
2023-04-09T13:47:08.878Z,14.15
2023-04-09T13:50:14.957Z,13.97
2023-04-09T13:53:17.554Z,12.20
2023-04-09T13:56:28.934Z,14.60
2023-04-09T13:59:31.628Z,13.82
2023-04-09T14:02:36.534Z,13.10
2023-04-09T14:05:40.655Z,14.32
2023-04-09T14:08:52.093Z,13.82
2023-04-09T14:11:58.813Z,14.53
2023-04-09T14:15:03.440Z,13.32
2023-04-09T14:18:08.167Z,12.90
2023-04-09T14:21:13.066Z,10.55
2023-04-09T14:24:15.736Z,11.43
2023-04-09T14:27:20.739Z,12.32
2023-04-09T14:30:35.614Z,12.80
2023-04-09T14:33:41.785Z,12.93
2023-04-09T14:36:44.768Z,12.43
2023-04-09T14:39:48.571Z,11.82
2023-04-09T14:42:51.136Z,12.70
2023-04-09T14:45:59.876Z,12.80
2023-04-09T14:49:05.011Z,12.48
2023-04-09T14:52:13.986Z,13.82
2023-04-09T14:55:19.240Z,14.43
2023-04-09T14:58:24.639Z,12.52
2023-04-09T15:01:30.745Z,14.70
2023-04-09T15:04:44.933Z,15.77
2023-04-09T15:07:51.492Z,13.20
2023-04-09T15:11:02.910Z,12.98
2023-04-09T15:14:06.721Z,14.27
2023-04-09T15:17:18.256Z,13.48
2023-04-09T15:20:22.849Z,14.77
2023-04-09T15:23:28.894Z,13.32
2023-04-09T15:26:45.811Z,13.67
2023-04-09T15:33:09.714Z,12.45
2023-04-09T15:36:22.986Z,13.43
2023-04-09T15:39:36.642Z,13.85
2023-04-09T15:42:49.060Z,14.73
2023-04-09T15:45:55.165Z,13.07
2023-04-09T15:48:59.892Z,13.70
2023-04-09T15:52:04.722Z,13.60
2023-04-09T15:55:11.663Z,14.00
2023-04-09T15:58:15.883Z,13.60
2023-04-09T16:01:19.736Z,12.90
2023-04-09T16:04:25.025Z,12.55
2023-04-09T16:07:29.789Z,13.27
2023-04-09T16:13:51.900Z,12.90
2023-04-09T16:16:54.220Z,13.93
2023-04-09T16:20:06.914Z,13.23
2023-04-09T16:23:12.234Z,13.23
2023-04-09T16:26:19.817Z,12.20
2023-04-09T16:29:24.767Z,12.43
2023-04-09T16:32:35.878Z,11.25
2023-04-09T16:35:42.333Z,11.93
2023-04-09T16:38:54.690Z,12.13
2023-04-09T16:41:59.006Z,11.90
2023-04-09T16:45:09.041Z,13.27
2023-04-09T16:48:15.636Z,12.73
2023-04-09T16:51:28.896Z,11.85
2023-04-09T16:54:37.022Z,11.98
2023-04-09T16:57:42.199Z,12.93
2023-04-09T17:00:50.004Z,12.05
2023-04-09T17:03:56.594Z,12.60
2023-04-09T17:07:01.559Z,13.03
2023-04-09T17:10:07.041Z,12.85
2023-04-09T17:13:18.575Z,11.93
2023-04-09T17:16:24.173Z,13.35
2023-04-09T17:19:30.033Z,12.95
2023-04-09T17:22:35.420Z,15.20
2023-04-09T17:25:41.173Z,13.90
2023-04-09T17:28:50.118Z,13.20
2023-04-09T17:31:59.702Z,12.70
2023-04-09T17:35:17.372Z,12.07
2023-04-09T17:38:24.056Z,12.55
2023-04-09T17:41:35.048Z,12.87
2023-04-09T17:44:41.572Z,12.93
2023-04-09T17:51:14.298Z,12.52
2023-04-09T17:54:19.006Z,14.20
2023-04-09T17:57:23.233Z,14.05
2023-04-09T18:00:28.961Z,14.82
2023-04-09T18:03:35.076Z,14.07
2023-04-09T18:06:38.680Z,13.50
2023-04-09T18:09:45.653Z,15.60
2023-04-09T18:12:51.580Z,17.15
2023-04-09T18:15:53.792Z,14.87
2023-04-09T18:19:07.459Z,16.45
2023-04-09T18:22:19.461Z,16.35
2023-04-09T18:25:24.503Z,14.48
2023-04-09T18:28:33.173Z,16.48
2023-04-09T18:31:39.160Z,21.95
2023-04-09T18:34:45.133Z,37.47
2023-04-09T18:37:50.331Z,23.33
2023-04-09T18:40:56.713Z,20.90
2023-04-09T18:44:01.423Z,20.85
2023-04-09T18:47:06.108Z,21.83
2023-04-09T18:50:11.600Z,23.23
2023-04-09T18:53:23.937Z,23.30
2023-04-09T18:56:32.774Z,19.27
2023-04-09T18:59:38.233Z,17.73
2023-04-09T19:02:43.489Z,19.08
2023-04-09T19:05:48.806Z,19.00
2023-04-09T19:08:58.773Z,17.27
2023-04-09T19:12:08.645Z,18.60
2023-04-09T19:15:14.282Z,19.23
2023-04-09T19:18:19.280Z,20.37
2023-04-09T19:21:31.992Z,20.55
2023-04-09T19:24:37.279Z,19.90
2023-04-09T19:27:49.982Z,21.75
2023-04-09T19:30:53.099Z,21.80
2023-04-09T19:33:56.851Z,20.80
2023-04-09T19:37:02.735Z,21.67
2023-04-09T19:40:08.473Z,22.53
2023-04-09T19:43:13.864Z,21.42
2023-04-09T19:46:28.845Z,22.30
2023-04-09T19:49:34.258Z,21.13
2023-04-09T19:52:47.944Z,19.45
2023-04-09T19:55:53.897Z,18.08
2023-04-09T19:58:59.211Z,20.40
2023-04-09T20:02:03.495Z,18.00
2023-04-09T20:05:10.615Z,19.30
2023-04-09T20:08:16.227Z,18.00
2023-04-09T20:11:28.161Z,19.17
2023-04-09T20:14:40.128Z,18.33
2023-04-09T20:17:45.035Z,18.98
2023-04-09T20:20:51.179Z,17.17
2023-04-09T20:23:54.127Z,19.38
2023-04-09T20:26:56.327Z,16.58
2023-04-09T20:30:01.230Z,19.40
2023-04-09T20:33:06.235Z,17.40
2023-04-09T20:36:21.704Z,20.70
2023-04-09T20:39:29.786Z,18.80
2023-04-09T20:42:36.775Z,20.53
2023-04-09T20:45:47.840Z,17.55
2023-04-09T20:48:55.414Z,20.08
2023-04-09T20:52:05.023Z,21.30
2023-04-09T20:55:17.099Z,20.95
2023-04-09T20:58:22.319Z,19.02
2023-04-09T21:01:28.135Z,17.17
2023-04-09T21:04:33.648Z,16.50
2023-04-09T21:07:48.319Z,18.15
2023-04-09T21:10:53.411Z,18.30
2023-04-09T21:17:15.694Z,17.75
2023-04-09T21:20:21.347Z,20.58
2023-04-09T21:23:27.017Z,19.60
2023-04-09T21:26:53.378Z,19.00
2023-04-09T21:29:58.976Z,22.80
2023-04-09T21:33:06.084Z,19.20
2023-04-09T21:36:11.879Z,17.50
2023-04-09T21:39:17.101Z,19.48
2023-04-09T21:42:31.345Z,20.95
2023-04-09T21:45:38.217Z,19.23
2023-04-09T21:48:43.436Z,20.42
2023-04-09T21:51:55.567Z,20.42
2023-04-09T21:55:01.225Z,19.27
2023-04-09T21:58:08.244Z,19.02
2023-04-09T22:01:19.187Z,20.05
2023-04-09T22:04:34.297Z,17.92
2023-04-09T22:07:51.324Z,21.48
2023-04-09T22:11:02.981Z,23.10
2023-04-09T22:14:09.297Z,19.67
2023-04-09T22:17:23.072Z,19.37
2023-04-09T22:20:27.032Z,19.25
2023-04-09T22:23:32.107Z,18.63
2023-04-09T22:26:38.388Z,17.63
2023-04-09T22:29:50.997Z,20.05
2023-04-09T22:32:56.760Z,17.27
2023-04-09T22:36:07.679Z,20.25
2023-04-09T22:39:13.208Z,18.63
2023-04-09T22:42:18.791Z,19.90
2023-04-09T22:45:24.858Z,19.65
2023-04-09T22:48:44.141Z,21.83
2023-04-09T22:51:50.843Z,23.52
2023-04-09T22:54:57.214Z,22.23
2023-04-09T22:58:02.693Z,21.20
2023-04-09T23:01:12.868Z,22.35
2023-04-09T23:04:18.943Z,20.90
2023-04-09T23:07:26.769Z,20.85
2023-04-09T23:10:31.536Z,22.75
2023-04-09T23:13:42.322Z,20.48
2023-04-09T23:16:54.981Z,17.73
2023-04-09T23:19:57.313Z,19.00
2023-04-09T23:23:01.730Z,20.27
2023-04-09T23:26:27.163Z,20.15
2023-04-09T23:29:29.026Z,18.00
2023-04-09T23:32:40.795Z,18.35
2023-04-09T23:35:46.142Z,21.83
2023-04-09T23:38:52.193Z,18.02
2023-04-09T23:42:01.262Z,19.75
2023-04-09T23:45:14.899Z,21.42
2023-04-09T23:48:17.758Z,19.38
2023-04-09T23:51:22.763Z,19.83
2023-04-09T23:54:32.193Z,18.27
2023-04-09T23:57:45.540Z,19.13
